createdAt,value
2017-11-29T00:01:07.975Z,15.80
2017-11-29T00:03:34.250Z,18.37
2017-11-29T00:06:00.503Z,18.02
2017-11-29T00:08:26.764Z,17.33
2017-11-29T00:10:53.007Z,17.58
2017-11-29T00:13:19.233Z,21.17
2017-11-29T00:15:46.268Z,18.30
2017-11-29T00:18:12.498Z,18.62
2017-11-29T00:20:38.793Z,17.23
2017-11-29T00:23:05.010Z,17.37
2017-11-29T00:25:31.230Z,16.30
2017-11-29T00:27:57.531Z,17.40
2017-11-29T00:30:24.507Z,17.55
2017-11-29T00:32:50.747Z,15.98
2017-11-29T00:35:16.978Z,16.35
2017-11-29T00:37:43.207Z,17.15
2017-11-29T00:40:09.511Z,15.50
2017-11-29T00:42:35.767Z,16.37
2017-11-29T00:45:02.021Z,14.87
2017-11-29T00:47:29.040Z,16.00
2017-11-29T00:49:55.292Z,15.38
2017-11-29T00:52:21.528Z,15.65
2017-11-29T00:54:48.512Z,16.62
2017-11-29T00:57:14.748Z,16.30
2017-11-29T00:59:41.022Z,14.93
2017-11-29T01:02:07.251Z,15.13
2017-11-29T01:04:33.487Z,17.05
2017-11-29T01:06:59.744Z,17.40
2017-11-29T01:09:25.984Z,18.50
2017-11-29T01:11:52.187Z,17.02
2017-11-29T01:14:19.225Z,17.25
2017-11-29T01:16:45.524Z,18.83
2017-11-29T01:19:11.766Z,18.33
2017-11-29T01:21:37.994Z,19.15
2017-11-29T01:24:04.219Z,19.70
2017-11-29T01:26:31.199Z,17.35
2017-11-29T01:28:57.414Z,19.15
2017-11-29T01:31:23.743Z,19.60
2017-11-29T01:33:50.758Z,18.83
2017-11-29T01:36:17.007Z,17.73
2017-11-29T01:38:43.199Z,19.95
2017-11-29T01:41:09.518Z,18.77
2017-11-29T01:43:35.764Z,18.70
2017-11-29T01:46:02.013Z,18.60
2017-11-29T01:48:28.297Z,17.00
2017-11-29T01:50:54.528Z,19.05
2017-11-29T01:53:20.746Z,18.60
2017-11-29T01:55:46.971Z,17.55
2017-11-29T01:58:13.207Z,20.30
2017-11-29T02:00:47.470Z,18.48
2017-11-29T02:03:13.797Z,19.25
2017-11-29T02:05:40.765Z,18.80
2017-11-29T02:08:07.023Z,17.35
2017-11-29T02:10:33.263Z,17.15
2017-11-29T02:12:59.470Z,18.27
2017-11-29T02:15:25.727Z,17.55
2017-11-29T02:17:51.938Z,16.12
2017-11-29T02:20:18.195Z,16.42
2017-11-29T02:22:44.430Z,16.37
2017-11-29T02:25:11.415Z,15.57
2017-11-29T02:27:37.683Z,15.70
2017-11-29T02:30:03.905Z,15.80
2017-11-29T02:32:30.152Z,16.40
2017-11-29T02:34:56.389Z,16.90
2017-11-29T02:37:23.408Z,16.58
2017-11-29T02:40:02.105Z,15.55
2017-11-29T02:42:36.401Z,15.50
2017-11-29T02:45:02.692Z,16.45
2017-11-29T02:47:29.635Z,17.90
2017-11-29T02:49:55.889Z,16.17
2017-11-29T02:52:22.120Z,18.35
2017-11-29T02:54:48.358Z,17.15
2017-11-29T02:57:14.851Z,17.62
2017-11-29T02:59:41.098Z,18.05
2017-11-29T03:02:07.352Z,17.52
2017-11-29T03:04:33.590Z,16.30
2017-11-29T03:06:59.835Z,16.77
2017-11-29T03:09:26.122Z,17.85
2017-11-29T03:11:53.067Z,16.92
2017-11-29T03:14:19.301Z,18.75
2017-11-29T03:16:45.576Z,18.80
2017-11-29T03:19:11.783Z,19.73
2017-11-29T03:21:38.017Z,16.58
2017-11-29T03:24:04.270Z,17.58
2017-11-29T03:26:31.270Z,17.15
2017-11-29T03:28:57.558Z,17.65
2017-11-29T03:31:23.926Z,16.92
2017-11-29T03:33:50.175Z,16.10
2017-11-29T03:36:16.419Z,17.12
2017-11-29T03:38:43.398Z,16.00
2017-11-29T03:41:09.625Z,17.45
2017-11-29T03:43:35.855Z,16.87
2017-11-29T03:46:02.098Z,16.70
2017-11-29T03:48:28.315Z,16.40
2017-11-29T03:50:54.555Z,16.15
2017-11-29T03:53:20.826Z,15.77
2017-11-29T03:55:47.063Z,16.98
2017-11-29T03:58:14.040Z,16.75
2017-11-29T04:04:10.188Z,15.75
2017-11-29T04:06:36.425Z,16.08
2017-11-29T04:09:02.494Z,19.45
2017-11-29T04:11:29.267Z,17.40
2017-11-29T04:13:55.573Z,15.30
2017-11-29T04:16:22.351Z,15.85
2017-11-29T04:18:48.385Z,15.55
2017-11-29T04:21:14.422Z,16.15
2017-11-29T04:23:40.453Z,17.15
2017-11-29T04:26:06.503Z,15.38
2017-11-29T04:28:33.330Z,17.08
2017-11-29T04:31:00.116Z,16.62
2017-11-29T04:33:26.178Z,17.10
2017-11-29T04:35:52.234Z,19.08
2017-11-29T04:38:18.280Z,16.95
2017-11-29T04:40:44.363Z,16.67
2017-11-29T04:43:11.151Z,17.73
2017-11-29T04:45:37.192Z,18.80
2017-11-29T04:48:03.222Z,15.93
2017-11-29T04:50:29.263Z,16.73
2017-11-29T04:52:56.037Z,16.17
2017-11-29T04:55:22.067Z,17.10
2017-11-29T04:57:48.103Z,16.30
2017-11-29T05:00:14.211Z,16.10
2017-11-29T05:02:40.247Z,16.12
2017-11-29T05:05:06.279Z,18.58
2017-11-29T05:07:32.310Z,18.80
2017-11-29T05:09:58.342Z,17.77
2017-11-29T05:12:24.384Z,17.85
2017-11-29T05:14:51.234Z,17.20
2017-11-29T05:17:18.021Z,18.90
2017-11-29T05:19:44.062Z,17.42
2017-11-29T05:22:10.115Z,17.48
2017-11-29T05:24:36.154Z,18.95
2017-11-29T05:27:02.195Z,19.10
2017-11-29T05:29:28.224Z,18.45
2017-11-29T05:31:55.335Z,19.35
2017-11-29T05:34:22.098Z,21.55
2017-11-29T05:36:48.137Z,20.92
2017-11-29T05:39:14.176Z,20.20
2017-11-29T05:41:40.193Z,22.75
2017-11-29T05:44:06.252Z,22.23
2017-11-29T05:46:32.283Z,20.40
2017-11-29T05:48:59.140Z,23.50
2017-11-29T05:51:25.211Z,20.60
2017-11-29T05:53:51.340Z,22.55
2017-11-29T05:56:18.168Z,21.70
2017-11-29T05:58:44.197Z,24.23
2017-11-29T06:01:10.248Z,23.35
2017-11-29T06:03:36.283Z,21.30
2017-11-29T06:06:03.084Z,22.60
2017-11-29T06:08:29.115Z,20.65
2017-11-29T06:10:55.175Z,19.02
2017-11-29T06:13:21.228Z,19.55
2017-11-29T06:15:47.267Z,21.52
2017-11-29T06:18:13.327Z,22.00
2017-11-29T06:20:40.111Z,21.75
2017-11-29T06:23:06.155Z,20.90
2017-11-29T06:25:32.206Z,20.45
2017-11-29T06:27:58.354Z,22.00
2017-11-29T06:30:25.127Z,20.25
2017-11-29T06:32:51.171Z,19.95
2017-11-29T06:35:17.223Z,21.65
2017-11-29T06:37:43.267Z,21.05
2017-11-29T06:40:10.035Z,21.12
2017-11-29T06:42:36.067Z,19.25
2017-11-29T06:45:02.107Z,20.92
2017-11-29T06:47:28.157Z,21.35
2017-11-29T06:49:54.944Z,20.00
2017-11-29T06:52:21.037Z,22.70
2017-11-29T06:54:47.072Z,20.77
2017-11-29T06:57:13.110Z,20.20
2017-11-29T06:59:39.196Z,21.42
2017-11-29T07:02:05.982Z,20.23
2017-11-29T07:04:32.016Z,20.95
2017-11-29T07:06:58.055Z,22.35
2017-11-29T07:09:24.254Z,20.67
2017-11-29T07:11:50.318Z,22.75
2017-11-29T07:14:16.752Z,19.60
2017-11-29T07:16:42.907Z,21.98
2017-11-29T07:19:09.683Z,22.67
2017-11-29T07:21:35.715Z,22.75
2017-11-29T07:24:01.789Z,22.77
2017-11-29T07:26:27.903Z,22.23
2017-11-29T07:28:54.692Z,21.40
2017-11-29T07:31:20.788Z,22.30
2017-11-29T07:33:46.862Z,22.58
2017-11-29T07:36:12.909Z,22.73
2017-11-29T07:38:39.725Z,21.27
2017-11-29T07:41:05.770Z,23.20
2017-11-29T07:43:32.542Z,22.60
2017-11-29T07:45:58.620Z,22.95
2017-11-29T07:48:24.677Z,22.83
2017-11-29T07:50:50.691Z,22.90
2017-11-29T07:53:16.748Z,23.42
2017-11-29T07:55:42.803Z,23.48
2017-11-29T07:58:08.832Z,22.42
2017-11-29T08:00:34.868Z,22.55
2017-11-29T08:03:01.670Z,21.98
2017-11-29T08:05:27.724Z,21.35
2017-11-29T08:07:53.743Z,20.60
2017-11-29T08:10:19.888Z,21.12
2017-11-29T08:12:45.999Z,21.30
2017-11-29T08:15:12.235Z,22.15
2017-11-29T08:17:39.214Z,23.58
2017-11-29T08:20:05.444Z,24.75
2017-11-29T08:22:31.703Z,21.87
2017-11-29T08:24:57.964Z,23.05
2017-11-29T08:27:24.318Z,23.65
2017-11-29T08:29:51.316Z,21.02
2017-11-29T08:32:18.332Z,22.98
2017-11-29T08:34:44.587Z,20.05
2017-11-29T08:37:11.590Z,21.05
2017-11-29T08:39:37.847Z,21.87
2017-11-29T08:42:04.827Z,21.17
2017-11-29T08:44:31.094Z,20.35
2017-11-29T08:46:57.424Z,18.80
2017-11-29T08:49:23.662Z,21.20
2017-11-29T08:51:49.895Z,18.25
2017-11-29T08:54:16.137Z,21.30
2017-11-29T08:56:42.365Z,17.73
2017-11-29T08:59:08.619Z,18.17
2017-11-29T09:01:35.606Z,19.33
2017-11-29T09:04:02.551Z,18.35
2017-11-29T09:06:28.789Z,17.98
2017-11-29T09:08:55.047Z,18.70
2017-11-29T09:11:22.834Z,18.02
2017-11-29T09:13:49.816Z,18.10
2017-11-29T09:16:16.065Z,18.55
2017-11-29T09:18:43.040Z,16.95
2017-11-29T09:21:10.039Z,16.12
2017-11-29T09:23:36.258Z,16.85
2017-11-29T09:26:02.495Z,15.65
2017-11-29T09:28:28.752Z,14.10
2017-11-29T09:30:55.770Z,17.80
2017-11-29T09:33:21.980Z,24.25
2017-11-29T09:35:48.241Z,15.00
2017-11-29T09:38:14.490Z,16.40
2017-11-29T09:40:41.483Z,15.65
2017-11-29T09:43:07.727Z,16.83
2017-11-29T09:45:33.972Z,16.73
2017-11-29T09:48:00.955Z,16.10
2017-11-29T09:50:27.189Z,16.98
2017-11-29T09:52:54.168Z,16.05
2017-11-29T09:55:24.105Z,16.65
2017-11-29T09:57:51.225Z,18.40
2017-11-29T10:00:17.477Z,18.17
2017-11-29T10:02:43.724Z,14.57
2017-11-29T10:05:09.989Z,17.52
2017-11-29T10:07:36.248Z,16.30
2017-11-29T10:10:02.501Z,17.73
2017-11-29T10:12:28.730Z,18.15
2017-11-29T10:14:54.955Z,17.48
2017-11-29T10:17:21.230Z,16.12
2017-11-29T10:19:47.482Z,16.52
2017-11-29T10:22:13.740Z,16.95
2017-11-29T10:24:44.677Z,15.98
2017-11-29T10:27:11.978Z,15.60
2017-11-29T10:29:38.243Z,17.95
2017-11-29T10:32:04.495Z,21.83
2017-11-29T10:34:31.479Z,20.00
2017-11-29T10:36:57.722Z,22.42
2017-11-29T10:39:23.959Z,16.80
2017-11-29T10:41:50.247Z,17.50
2017-11-29T10:44:16.482Z,13.75
2017-11-29T10:46:42.728Z,14.93
2017-11-29T10:49:08.992Z,15.30
2017-11-29T10:51:35.331Z,15.63
2017-11-29T10:54:02.319Z,13.02
2017-11-29T10:56:28.555Z,16.62
2017-11-29T10:58:54.775Z,14.95
2017-11-29T11:01:21.029Z,16.60
2017-11-29T11:03:47.307Z,16.35
2017-11-29T11:06:13.547Z,18.40
2017-11-29T11:08:39.792Z,17.05
2017-11-29T11:11:06.019Z,15.07
2017-11-29T11:13:32.273Z,14.18
2017-11-29T11:15:58.483Z,16.00
2017-11-29T11:18:25.518Z,15.05
2017-11-29T11:20:51.771Z,14.45
2017-11-29T11:23:18.019Z,14.80
2017-11-29T11:25:45.006Z,15.07
2017-11-29T11:28:11.271Z,14.68
2017-11-29T11:30:37.519Z,15.45
2017-11-29T11:33:04.547Z,14.00
2017-11-29T11:35:30.834Z,14.87
2017-11-29T11:37:57.058Z,15.50
2017-11-29T11:40:23.328Z,15.57
2017-11-29T11:42:49.554Z,13.48
2017-11-29T11:45:15.805Z,13.43
2017-11-29T11:47:42.032Z,14.15
2017-11-29T11:50:08.307Z,15.27
2017-11-29T11:52:34.534Z,15.43
2017-11-29T11:55:00.745Z,15.35
2017-11-29T11:57:26.997Z,14.23
2017-11-29T11:59:53.243Z,14.60
2017-11-29T12:02:19.490Z,16.33
2017-11-29T12:04:46.506Z,17.40
2017-11-29T12:07:12.799Z,17.60
2017-11-29T12:09:39.031Z,15.85
2017-11-29T12:12:05.259Z,15.52
2017-11-29T12:14:31.494Z,18.00
2017-11-29T12:16:57.763Z,16.83
2017-11-29T12:19:24.775Z,16.58
2017-11-29T12:21:51.024Z,16.02
2017-11-29T12:24:17.249Z,14.60
2017-11-29T12:26:43.487Z,12.73
2017-11-29T12:29:10.479Z,14.55
2017-11-29T12:31:36.711Z,14.00
2017-11-29T12:34:02.977Z,14.95
2017-11-29T12:36:29.215Z,13.65
2017-11-29T12:38:55.476Z,12.55
2017-11-29T12:41:21.727Z,14.50
2017-11-29T12:43:47.965Z,13.27
2017-11-29T12:46:14.223Z,14.13
2017-11-29T12:48:52.640Z,14.87
2017-11-29T12:51:18.871Z,13.25
2017-11-29T12:53:45.091Z,14.53
2017-11-29T12:56:12.125Z,12.60
2017-11-29T12:58:39.124Z,13.43
2017-11-29T13:01:05.376Z,14.10
2017-11-29T13:03:31.635Z,14.60
2017-11-29T13:05:57.866Z,12.47
2017-11-29T13:08:24.907Z,14.05
2017-11-29T13:10:51.156Z,14.03
2017-11-29T13:13:18.288Z,15.10
2017-11-29T13:15:44.551Z,14.23
2017-11-29T13:18:10.798Z,13.70
2017-11-29T13:20:37.830Z,14.03
2017-11-29T13:23:04.063Z,11.53
2017-11-29T13:25:30.287Z,13.50
2017-11-29T13:27:56.543Z,12.50
2017-11-29T13:30:22.807Z,12.07
2017-11-29T13:32:49.072Z,12.70
2017-11-29T13:35:15.327Z,13.10
2017-11-29T13:37:41.566Z,12.00
2017-11-29T13:40:07.799Z,12.33
2017-11-29T13:42:34.059Z,10.33
2017-11-29T13:45:01.044Z,10.63
2017-11-29T13:47:27.292Z,11.60
2017-11-29T13:49:53.530Z,10.47
2017-11-29T13:52:19.790Z,14.37
2017-11-29T13:54:46.110Z,12.57
2017-11-29T13:57:13.108Z,13.43
2017-11-29T13:59:39.342Z,12.73
2017-11-29T14:02:05.591Z,11.87
2017-11-29T14:04:32.642Z,14.30
2017-11-29T14:07:00.318Z,13.43
2017-11-29T14:09:27.323Z,12.73
2017-11-29T14:11:53.582Z,12.60
2017-11-29T14:14:19.899Z,13.30
2017-11-29T14:16:46.127Z,13.30
2017-11-29T14:19:12.384Z,13.35
2017-11-29T14:21:38.662Z,12.85
2017-11-29T14:24:04.903Z,13.35
2017-11-29T14:26:31.115Z,14.02
2017-11-29T14:28:57.360Z,13.10
2017-11-29T14:31:23.594Z,14.00
2017-11-29T14:33:50.574Z,15.20
2017-11-29T14:36:16.819Z,13.02
2017-11-29T14:38:43.038Z,14.20
2017-11-29T14:41:09.272Z,17.48
2017-11-29T14:43:35.548Z,18.62
2017-11-29T14:46:02.547Z,14.00
2017-11-29T14:48:28.781Z,17.52
2017-11-29T14:50:55.012Z,16.33
2017-11-29T14:53:21.307Z,14.20
2017-11-29T14:55:47.550Z,16.33
2017-11-29T14:58:13.785Z,14.65
2017-11-29T15:00:41.080Z,22.40
2017-11-29T15:03:08.088Z,17.42
2017-11-29T15:05:34.354Z,16.98
2017-11-29T15:08:01.319Z,15.30
2017-11-29T15:10:27.564Z,17.15
2017-11-29T15:12:53.862Z,15.40
2017-11-29T15:15:20.154Z,15.52
2017-11-29T15:17:46.358Z,16.40
2017-11-29T15:20:12.635Z,15.57
2017-11-29T15:22:39.634Z,16.10
2017-11-29T15:25:06.014Z,16.58
2017-11-29T15:27:33.023Z,17.02
2017-11-29T15:29:59.278Z,15.20
2017-11-29T15:32:26.285Z,16.50
2017-11-29T15:34:52.519Z,15.93
2017-11-29T15:37:18.760Z,17.83
2017-11-29T15:39:44.986Z,17.25
2017-11-29T15:42:11.195Z,16.90
2017-11-29T15:44:37.463Z,16.05
2017-11-29T15:47:03.799Z,18.37
2017-11-29T15:49:30.178Z,17.67
2017-11-29T15:51:56.418Z,17.42
2017-11-29T15:54:24.152Z,19.80
2017-11-29T15:56:50.445Z,19.77
2017-11-29T15:59:16.663Z,19.23
2017-11-29T16:01:42.900Z,17.87
2017-11-29T16:04:09.888Z,16.65
2017-11-29T16:06:36.130Z,19.48
2017-11-29T16:09:02.405Z,20.73
2017-11-29T16:11:29.377Z,19.20
2017-11-29T16:13:56.415Z,20.37
2017-11-29T16:16:22.631Z,21.55
2017-11-29T16:18:48.963Z,18.75
2017-11-29T16:21:15.270Z,17.55
2017-11-29T16:23:41.560Z,18.87
2017-11-29T16:26:07.815Z,17.45
2017-11-29T16:28:34.911Z,19.05
2017-11-29T16:31:01.236Z,18.08
2017-11-29T16:33:27.576Z,21.15
2017-11-29T16:35:53.844Z,25.33
2017-11-29T16:38:20.091Z,25.35
2017-11-29T16:40:46.467Z,26.35
2017-11-29T16:43:12.773Z,28.35
2017-11-29T16:45:39.084Z,25.92
2017-11-29T16:48:05.518Z,26.58
2017-11-29T16:50:32.356Z,28.65
2017-11-29T16:52:59.189Z,25.90
2017-11-29T16:55:26.060Z,26.30
2017-11-29T16:57:52.159Z,27.40
2017-11-29T17:00:19.114Z,26.33
2017-11-29T17:02:45.944Z,27.20
2017-11-29T17:05:12.787Z,27.10
2017-11-29T17:07:39.567Z,26.48
2017-11-29T17:10:05.622Z,23.40
2017-11-29T17:12:31.812Z,25.58
2017-11-29T17:14:58.728Z,25.45
2017-11-29T17:17:25.576Z,26.58
2017-11-29T17:19:52.349Z,27.05
2017-11-29T17:22:18.442Z,28.27
2017-11-29T17:24:44.502Z,27.10
2017-11-29T17:27:10.552Z,25.83
2017-11-29T17:29:48.956Z,26.90
2017-11-29T17:32:15.203Z,28.77
2017-11-29T17:34:41.421Z,28.75
2017-11-29T17:37:08.427Z,31.00
2017-11-29T17:39:34.703Z,31.45
2017-11-29T17:42:00.931Z,31.05
2017-11-29T17:44:27.938Z,28.12
2017-11-29T17:46:54.221Z,30.25
2017-11-29T17:49:21.275Z,31.15
2017-11-29T17:51:47.633Z,30.50
2017-11-29T17:54:13.862Z,28.55
2017-11-29T17:56:40.794Z,27.62
2017-11-29T17:59:07.014Z,30.67
2017-11-29T18:01:33.293Z,31.33
2017-11-29T18:04:00.458Z,32.88
2017-11-29T18:06:26.689Z,30.45
2017-11-29T18:08:53.728Z,31.60
2017-11-29T18:11:20.075Z,31.30
2017-11-29T18:13:47.104Z,30.62
2017-11-29T18:16:14.186Z,29.37
2017-11-29T18:18:40.473Z,30.92
2017-11-29T18:21:06.700Z,30.85
2017-11-29T18:23:33.707Z,31.65
2017-11-29T18:25:59.993Z,30.17
2017-11-29T18:28:26.251Z,33.83
2017-11-29T18:30:52.507Z,35.95
2017-11-29T18:33:18.911Z,32.63
2017-11-29T18:35:45.162Z,33.53
2017-11-29T18:38:11.406Z,39.05
2017-11-29T18:40:37.655Z,38.30
2017-11-29T18:43:03.887Z,33.45
2017-11-29T18:45:30.989Z,35.05
2017-11-29T18:47:57.199Z,33.03
2017-11-29T18:50:23.440Z,35.45
2017-11-29T18:52:49.706Z,37.28
2017-11-29T18:55:16.739Z,37.33
2017-11-29T18:57:42.989Z,41.90
2017-11-29T19:00:10.014Z,39.65
2017-11-29T19:02:36.058Z,42.75
2017-11-29T19:05:02.099Z,42.25
2017-11-29T19:07:28.144Z,37.63
2017-11-29T19:09:54.352Z,39.55
2017-11-29T19:12:20.439Z,37.92
2017-11-29T19:14:47.306Z,38.05
2017-11-29T19:17:13.360Z,38.42
2017-11-29T19:19:40.156Z,37.70
2017-11-29T19:22:06.280Z,37.78
2017-11-29T19:24:33.151Z,36.00
2017-11-29T19:26:59.179Z,40.78
2017-11-29T19:29:25.279Z,39.88
2017-11-29T19:31:51.343Z,35.22
2017-11-29T19:34:17.450Z,36.10
2017-11-29T19:36:43.512Z,37.03
2017-11-29T19:39:09.565Z,34.80
2017-11-29T19:41:36.344Z,37.92
2017-11-29T19:44:02.375Z,39.45
2017-11-29T19:46:29.278Z,38.22
2017-11-29T19:48:55.417Z,38.03
2017-11-29T19:51:21.739Z,35.15
2017-11-29T19:53:47.776Z,35.25
2017-11-29T19:56:13.821Z,34.58
2017-11-29T19:58:39.973Z,36.88
2017-11-29T20:01:06.840Z,34.63
2017-11-29T20:03:32.964Z,35.70
2017-11-29T20:05:59.034Z,33.92
2017-11-29T20:08:25.078Z,34.30
2017-11-29T20:10:51.886Z,33.25
2017-11-29T20:13:17.955Z,36.15
2017-11-29T20:15:44.808Z,37.67
2017-11-29T20:18:11.592Z,37.33
2017-11-29T20:20:38.425Z,47.03
2017-11-29T20:23:04.482Z,42.90
2017-11-29T20:25:30.569Z,37.75
2017-11-29T20:27:56.679Z,40.97
2017-11-29T20:30:22.859Z,46.95
2017-11-29T20:32:48.898Z,41.90
2017-11-29T20:35:15.694Z,48.95
2017-11-29T20:37:41.762Z,49.20
2017-11-29T20:40:07.889Z,50.17
2017-11-29T20:42:34.728Z,49.90
2017-11-29T20:45:01.511Z,57.38
2017-11-29T20:47:27.550Z,52.22
2017-11-29T20:49:54.334Z,56.80
2017-11-29T20:52:33.657Z,53.47
2017-11-29T20:54:59.907Z,43.40
2017-11-29T20:57:26.258Z,36.08
2017-11-29T20:59:52.560Z,36.13
2017-11-29T21:02:19.540Z,33.97
2017-11-29T21:04:45.822Z,30.92
2017-11-29T21:07:12.803Z,36.72
2017-11-29T21:09:39.747Z,30.37
2017-11-29T21:12:06.083Z,30.77
2017-11-29T21:14:33.026Z,30.00
2017-11-29T21:16:59.275Z,31.77
2017-11-29T21:19:25.514Z,30.50
2017-11-29T21:21:51.867Z,30.48
2017-11-29T21:24:18.854Z,34.00
2017-11-29T21:26:45.179Z,32.58
2017-11-29T21:29:11.442Z,32.45
2017-11-29T21:31:37.731Z,31.87
2017-11-29T21:34:03.994Z,30.73
2017-11-29T21:36:31.158Z,30.33
2017-11-29T21:38:58.155Z,30.58
2017-11-29T21:41:24.382Z,28.48
2017-11-29T21:43:50.626Z,31.67
2017-11-29T21:46:16.866Z,31.45
2017-11-29T21:48:43.282Z,28.67
2017-11-29T21:51:09.521Z,29.70
2017-11-29T21:53:35.779Z,32.65
2017-11-29T21:56:02.013Z,30.27
2017-11-29T21:58:28.227Z,28.25
2017-11-29T22:00:54.502Z,29.92
2017-11-29T22:03:20.852Z,27.45
2017-11-29T22:05:47.107Z,28.10
2017-11-29T22:08:13.351Z,27.90
2017-11-29T22:10:40.143Z,27.08
2017-11-29T22:13:06.167Z,28.85
2017-11-29T22:15:32.199Z,29.10
2017-11-29T22:17:58.247Z,29.25
2017-11-29T22:20:24.300Z,30.37
2017-11-29T22:22:50.346Z,30.98
2017-11-29T22:25:16.402Z,28.83
2017-11-29T22:27:42.454Z,29.55
2017-11-29T22:30:09.280Z,33.15
2017-11-29T22:32:35.323Z,31.42
2017-11-29T22:35:02.147Z,31.12
2017-11-29T22:37:28.987Z,29.45
2017-11-29T22:39:55.121Z,31.73
2017-11-29T22:42:21.919Z,30.73
2017-11-29T22:44:47.970Z,31.87
2017-11-29T22:47:14.019Z,29.73
2017-11-29T22:49:41.001Z,32.35
2017-11-29T22:52:07.036Z,31.65
2017-11-29T22:54:33.074Z,28.62
2017-11-29T22:56:59.105Z,29.48
2017-11-29T22:59:25.147Z,30.55
2017-11-29T23:01:51.942Z,31.48
2017-11-29T23:04:18.005Z,29.80
2017-11-29T23:06:44.020Z,29.48
2017-11-29T23:09:10.862Z,28.83
2017-11-29T23:11:36.911Z,31.00
2017-11-29T23:14:02.974Z,29.50
2017-11-29T23:16:29.011Z,31.50
2017-11-29T23:18:55.046Z,30.80
2017-11-29T23:21:21.120Z,29.05
2017-11-29T23:23:47.246Z,30.60
2017-11-29T23:26:13.304Z,33.53
2017-11-29T23:28:39.354Z,29.15
2017-11-29T23:31:06.132Z,28.85
2017-11-29T23:33:32.182Z,29.23
2017-11-29T23:35:58.234Z,29.58
2017-11-29T23:38:24.280Z,29.00
2017-11-29T23:40:50.401Z,28.33
2017-11-29T23:43:17.167Z,27.90
2017-11-29T23:45:43.216Z,26.80
2017-11-29T23:48:09.261Z,27.60
2017-11-29T23:50:35.290Z,27.95
2017-11-29T23:53:02.066Z,26.20
2017-11-29T23:55:28.101Z,29.55
2017-11-29T23:57:54.136Z,25.20
